createdAt,value
2019-05-05T00:01:17.372Z,5.50
2019-05-05T00:03:24.891Z,6.13
2019-05-05T00:05:29.839Z,5.70
2019-05-05T00:07:34.980Z,6.00
2019-05-05T00:09:38.771Z,5.80
2019-05-05T00:11:44.517Z,5.90
2019-05-05T00:13:49.866Z,5.40
2019-05-05T00:16:11.646Z,5.97
2019-05-05T00:18:16.523Z,5.50
2019-05-05T00:20:20.181Z,6.30
2019-05-05T00:22:24.526Z,6.40
2019-05-05T00:24:28.477Z,6.10
2019-05-05T00:26:32.310Z,6.00
2019-05-05T00:28:35.962Z,7.83
2019-05-05T00:30:41.320Z,6.67
2019-05-05T00:32:44.946Z,7.07
2019-05-05T00:34:48.602Z,7.20
2019-05-05T00:36:52.214Z,7.03
2019-05-05T00:38:56.019Z,7.17
2019-05-05T00:40:59.808Z,7.33
2019-05-05T00:43:05.302Z,7.83
2019-05-05T00:45:09.185Z,6.73
2019-05-05T00:47:17.618Z,7.43
2019-05-05T00:49:21.335Z,7.03
2019-05-05T00:51:24.906Z,6.80
2019-05-05T00:53:28.603Z,6.30
2019-05-05T00:55:35.325Z,7.00
2019-05-05T00:57:39.094Z,7.13
2019-05-05T00:59:42.690Z,7.93
2019-05-05T01:01:55.259Z,8.17
2019-05-05T01:04:00.685Z,7.90
2019-05-05T01:06:07.268Z,7.10
2019-05-05T01:08:15.503Z,7.30
2019-05-05T01:10:19.354Z,7.60
2019-05-05T01:12:24.339Z,7.90
2019-05-05T01:14:28.194Z,8.00
2019-05-05T01:16:31.858Z,7.97
2019-05-05T01:18:35.707Z,7.80
2019-05-05T01:20:39.459Z,7.57
2019-05-05T01:22:44.840Z,6.70
2019-05-05T01:24:48.707Z,7.30
2019-05-05T01:26:52.465Z,7.30
2019-05-05T01:28:56.396Z,7.20
2019-05-05T01:31:01.818Z,7.20
2019-05-05T01:33:19.309Z,5.83
2019-05-05T01:35:24.837Z,6.50
2019-05-05T01:37:35.819Z,6.70
2019-05-05T01:39:49.954Z,7.13
2019-05-05T01:42:04.895Z,6.97
2019-05-05T01:44:08.855Z,7.27
2019-05-05T01:46:14.300Z,7.27
2019-05-05T01:48:18.131Z,7.30
2019-05-05T01:50:21.776Z,7.50
2019-05-05T01:52:25.571Z,6.83
2019-05-05T01:54:29.310Z,7.30
2019-05-05T01:56:35.208Z,7.93
2019-05-05T01:58:39.352Z,6.83
2019-05-05T02:00:45.079Z,8.00
2019-05-05T02:02:48.529Z,7.67
2019-05-05T02:04:52.302Z,6.87
2019-05-05T02:06:56.062Z,7.50
2019-05-05T02:08:59.862Z,7.23
2019-05-05T02:11:05.221Z,8.40
2019-05-05T02:13:09.015Z,7.80
2019-05-05T02:15:14.723Z,7.63
2019-05-05T02:17:18.326Z,7.57
2019-05-05T02:19:22.115Z,7.80
2019-05-05T02:21:25.796Z,8.30
2019-05-05T02:23:29.536Z,8.80
2019-05-05T02:25:34.585Z,8.17
2019-05-05T02:27:38.432Z,7.57
2019-05-05T02:29:44.678Z,8.47
2019-05-05T02:32:06.699Z,8.03
2019-05-05T02:34:11.470Z,8.17
2019-05-05T02:36:15.964Z,8.03
2019-05-05T02:38:21.090Z,8.27
2019-05-05T02:40:25.053Z,8.97
2019-05-05T02:42:29.064Z,13.13
2019-05-05T02:44:34.788Z,15.80
2019-05-05T02:46:46.352Z,10.40
2019-05-05T02:48:55.144Z,9.77
2019-05-05T02:51:02.177Z,7.67
2019-05-05T02:53:04.956Z,9.13
2019-05-05T02:55:10.038Z,9.70
2019-05-05T02:57:15.062Z,9.93
2019-05-05T02:59:23.775Z,9.13
2019-05-05T03:01:30.530Z,8.83
2019-05-05T03:03:37.432Z,8.73
2019-05-05T03:05:42.990Z,8.70
2019-05-05T03:07:46.644Z,8.27
2019-05-05T03:09:51.533Z,8.60
2019-05-05T03:11:57.896Z,8.10
2019-05-05T03:14:04.544Z,8.23
2019-05-05T03:16:19.966Z,8.23
2019-05-05T03:18:26.449Z,7.33
2019-05-05T03:20:29.395Z,8.10
2019-05-05T03:22:34.074Z,7.67
2019-05-05T03:24:38.613Z,7.70
2019-05-05T03:26:44.385Z,7.53
2019-05-05T03:28:50.293Z,8.23
2019-05-05T03:30:55.705Z,7.60
2019-05-05T03:32:59.456Z,7.27
2019-05-05T03:35:04.317Z,7.90
2019-05-05T03:37:08.800Z,8.50
2019-05-05T03:39:14.457Z,8.70
2019-05-05T03:41:23.838Z,8.77
2019-05-05T03:43:29.528Z,8.13
2019-05-05T03:45:34.909Z,8.13
2019-05-05T03:47:38.890Z,7.47
2019-05-05T03:49:44.214Z,8.27
2019-05-05T03:51:48.108Z,7.53
2019-05-05T03:53:53.547Z,8.03
2019-05-05T03:55:57.858Z,7.23
2019-05-05T03:58:01.713Z,7.30
2019-05-05T04:00:10.244Z,8.67
2019-05-05T04:02:24.540Z,9.30
2019-05-05T04:04:29.938Z,9.63
2019-05-05T04:06:38.119Z,10.20
2019-05-05T04:08:44.401Z,8.90
2019-05-05T04:10:48.285Z,9.60
2019-05-05T04:12:53.959Z,8.83
2019-05-05T04:14:59.189Z,8.60
2019-05-05T04:17:10.872Z,9.57
2019-05-05T04:19:23.710Z,9.47
2019-05-05T04:21:33.586Z,9.10
2019-05-05T04:23:33.514Z,10.10
2019-05-05T04:25:37.388Z,10.80
2019-05-05T04:27:41.158Z,11.30
2019-05-05T04:29:44.963Z,11.60
2019-05-05T04:31:48.600Z,11.43
2019-05-05T04:33:53.846Z,10.60
2019-05-05T04:35:57.644Z,10.83
2019-05-05T04:38:01.347Z,10.37
2019-05-05T04:40:05.181Z,11.50
2019-05-05T04:42:09.000Z,12.10
2019-05-05T04:44:14.834Z,12.10
2019-05-05T04:46:18.175Z,11.90
2019-05-05T04:48:24.227Z,11.10
2019-05-05T04:50:34.386Z,11.87
2019-05-05T04:52:37.718Z,11.60
2019-05-05T04:54:43.936Z,10.50
2019-05-05T04:56:47.816Z,12.10
2019-05-05T04:58:51.570Z,10.63
2019-05-05T05:00:55.238Z,12.37
2019-05-05T05:03:16.836Z,11.23
2019-05-05T05:05:34.249Z,10.00
2019-05-05T05:07:37.932Z,13.03
2019-05-05T05:09:43.368Z,12.30
2019-05-05T05:11:47.040Z,14.13
2019-05-05T05:13:50.768Z,13.87
2019-05-05T05:15:54.535Z,13.67
2019-05-05T05:18:17.186Z,13.40
2019-05-05T05:20:20.905Z,13.80
2019-05-05T05:22:24.573Z,14.10
2019-05-05T05:24:28.228Z,14.47
2019-05-05T05:26:33.589Z,13.20
2019-05-05T05:28:37.139Z,12.53
2019-05-05T05:30:40.940Z,14.10
2019-05-05T05:32:44.743Z,14.63
2019-05-05T05:34:48.386Z,16.93
2019-05-05T05:36:53.647Z,15.00
2019-05-05T05:38:59.141Z,14.83
2019-05-05T05:41:13.800Z,13.97
2019-05-05T05:43:21.848Z,15.77
2019-05-05T05:45:29.837Z,14.90
2019-05-05T05:47:53.653Z,14.70
2019-05-05T05:50:04.677Z,14.97
2019-05-05T05:52:15.904Z,15.40
2019-05-05T05:54:14.218Z,15.20
2019-05-05T05:56:17.789Z,15.53
2019-05-05T05:58:21.552Z,17.00
2019-05-05T06:00:25.568Z,17.13
2019-05-05T06:02:29.292Z,17.57
2019-05-05T06:04:34.061Z,16.30
2019-05-05T06:06:37.911Z,16.23
2019-05-05T06:08:43.818Z,18.00
2019-05-05T06:10:47.008Z,16.33
2019-05-05T06:12:50.695Z,17.17
2019-05-05T06:14:54.455Z,17.40
2019-05-05T06:16:58.193Z,16.83
2019-05-05T06:19:03.639Z,18.97
2019-05-05T06:21:07.547Z,15.80
2019-05-05T06:23:11.270Z,18.57
2019-05-05T06:25:16.084Z,17.73
2019-05-05T06:27:20.078Z,17.80
2019-05-05T06:29:23.954Z,17.17
2019-05-05T06:31:27.979Z,16.10
2019-05-05T06:33:31.625Z,16.17
2019-05-05T06:35:35.276Z,17.97
2019-05-05T06:37:41.068Z,16.97
2019-05-05T06:39:45.913Z,17.13
2019-05-05T06:41:56.869Z,16.60
2019-05-05T06:44:14.219Z,15.83
2019-05-05T06:46:19.664Z,16.47
2019-05-05T06:48:23.733Z,17.60
2019-05-05T06:50:27.481Z,16.00
2019-05-05T06:52:41.978Z,16.10
2019-05-05T06:54:36.674Z,16.27
2019-05-05T06:56:40.344Z,18.03
2019-05-05T06:58:44.827Z,15.50
2019-05-05T07:00:48.725Z,15.60
2019-05-05T07:02:54.057Z,15.70
2019-05-05T07:04:58.003Z,15.50
2019-05-05T07:07:01.718Z,15.17
2019-05-05T07:09:06.518Z,14.00
2019-05-05T07:11:10.320Z,12.77
2019-05-05T07:13:14.147Z,14.50
2019-05-05T07:15:17.909Z,11.57
2019-05-05T07:17:21.616Z,9.63
2019-05-05T07:19:25.349Z,8.07
2019-05-05T07:21:29.363Z,10.87
2019-05-05T07:23:34.054Z,8.73
2019-05-05T07:25:42.927Z,7.80
2019-05-05T07:27:44.285Z,7.93
2019-05-05T07:29:48.060Z,6.40
2019-05-05T07:31:51.806Z,5.90
2019-05-05T07:33:55.548Z,6.43
2019-05-05T07:36:06.003Z,6.80
2019-05-05T07:38:08.879Z,7.37
2019-05-05T07:40:13.683Z,6.70
2019-05-05T07:42:17.443Z,5.97
2019-05-05T07:44:26.589Z,4.93
2019-05-05T07:46:26.388Z,4.83
2019-05-05T07:48:30.081Z,3.67
2019-05-05T07:50:35.787Z,3.70
2019-05-05T07:52:39.099Z,3.93
2019-05-05T07:54:43.613Z,3.67
2019-05-05T07:56:47.356Z,3.93
2019-05-05T07:58:50.979Z,4.17
2019-05-05T08:00:54.805Z,4.10
2019-05-05T08:03:17.920Z,3.80
2019-05-05T08:05:21.655Z,3.40
2019-05-05T08:07:25.335Z,3.60
2019-05-05T08:09:29.003Z,4.10
2019-05-05T08:11:34.289Z,4.40
2019-05-05T08:13:38.220Z,4.47
2019-05-05T08:15:56.989Z,5.03
2019-05-05T08:17:50.672Z,3.90
2019-05-05T08:19:59.167Z,4.97
2019-05-05T08:22:03.705Z,4.77
2019-05-05T08:24:09.167Z,3.97
2019-05-05T08:26:23.680Z,4.07
2019-05-05T08:28:34.922Z,4.33
2019-05-05T08:30:46.238Z,3.63
2019-05-05T08:32:53.906Z,4.90
2019-05-05T08:35:00.731Z,3.83
2019-05-05T08:37:04.413Z,4.97
2019-05-05T08:39:08.173Z,4.10
2019-05-05T08:41:13.746Z,4.07
2019-05-05T08:43:17.094Z,4.40
2019-05-05T08:45:23.788Z,3.93
2019-05-05T08:47:28.177Z,4.70
2019-05-05T08:49:31.940Z,4.60
2019-05-05T08:51:35.581Z,4.93
2019-05-05T08:53:44.472Z,5.07
2019-05-05T08:55:44.504Z,4.10
2019-05-05T08:57:48.238Z,4.87
2019-05-05T08:59:54.316Z,4.57
2019-05-05T09:01:58.994Z,3.90
2019-05-05T09:04:04.110Z,4.87
2019-05-05T09:06:07.865Z,4.53
2019-05-05T09:08:13.641Z,4.10
2019-05-05T09:10:17.460Z,4.20
2019-05-05T09:12:21.119Z,4.23
2019-05-05T09:14:24.751Z,4.77
2019-05-05T09:16:28.412Z,4.30
2019-05-05T09:18:33.962Z,4.80
2019-05-05T09:20:37.496Z,4.33
2019-05-05T09:22:41.262Z,4.70
2019-05-05T09:24:46.658Z,5.47
2019-05-05T09:27:03.887Z,4.80
2019-05-05T09:29:27.097Z,4.13
2019-05-05T09:31:30.768Z,5.00
2019-05-05T09:33:34.387Z,4.27
2019-05-05T09:35:38.235Z,3.90
2019-05-05T09:37:44.181Z,4.40
2019-05-05T09:39:47.646Z,3.93
2019-05-05T09:41:53.468Z,4.53
2019-05-05T09:43:56.557Z,5.03
2019-05-05T09:46:00.308Z,4.67
2019-05-05T09:48:04.384Z,5.20
2019-05-05T09:50:08.401Z,4.57
2019-05-05T09:52:13.986Z,4.77
2019-05-05T09:54:17.638Z,4.50
2019-05-05T09:56:23.511Z,4.47
2019-05-05T09:58:26.655Z,4.73
2019-05-05T10:00:33.665Z,4.70
2019-05-05T10:02:37.511Z,5.00
2019-05-05T10:04:41.204Z,5.37
2019-05-05T10:06:47.683Z,5.00
2019-05-05T10:08:50.240Z,5.57
2019-05-05T10:10:54.770Z,4.60
2019-05-05T10:12:58.484Z,4.50
2019-05-05T10:15:07.182Z,3.60
2019-05-05T10:17:07.715Z,3.63
2019-05-05T10:19:13.773Z,3.60
2019-05-05T10:21:17.862Z,4.10
2019-05-05T10:23:23.641Z,4.13
2019-05-05T10:25:29.015Z,4.13
2019-05-05T10:27:44.311Z,3.53
2019-05-05T10:29:37.882Z,4.13
2019-05-05T10:31:43.547Z,4.23
2019-05-05T10:33:48.546Z,3.97
2019-05-05T10:35:54.099Z,3.73
2019-05-05T10:37:57.694Z,3.67
2019-05-05T10:40:03.523Z,3.50
2019-05-05T10:42:06.657Z,3.23
2019-05-05T10:44:10.429Z,3.00
2019-05-05T10:46:15.482Z,3.10
2019-05-05T10:48:19.028Z,2.97
2019-05-05T10:50:24.693Z,2.73
2019-05-05T10:52:28.147Z,2.90
2019-05-05T10:54:43.187Z,3.17
2019-05-05T10:56:37.159Z,2.93
2019-05-05T10:58:40.824Z,3.27
2019-05-05T11:00:50.712Z,3.10
2019-05-05T11:02:54.386Z,3.20
2019-05-05T11:04:58.102Z,3.03
2019-05-05T11:07:03.984Z,3.17
2019-05-05T11:09:08.324Z,2.83
2019-05-05T11:11:13.717Z,3.30
2019-05-05T11:13:18.675Z,3.23
2019-05-05T11:15:22.354Z,3.67
2019-05-05T11:17:26.071Z,3.27
2019-05-05T11:19:29.797Z,3.40
2019-05-05T11:21:34.174Z,2.90
2019-05-05T11:23:37.992Z,3.27
2019-05-05T11:25:41.650Z,3.37
2019-05-05T11:27:45.549Z,2.80
2019-05-05T11:30:06.682Z,3.07
2019-05-05T11:32:15.286Z,3.10
2019-05-05T11:34:20.792Z,3.10
2019-05-05T11:36:29.149Z,3.10
2019-05-05T11:38:33.854Z,3.70
2019-05-05T11:40:38.272Z,3.10
2019-05-05T11:42:41.994Z,3.50
2019-05-05T11:44:47.417Z,5.30
2019-05-05T11:46:51.076Z,5.50
2019-05-05T11:48:54.722Z,4.30
2019-05-05T11:50:58.592Z,4.50
2019-05-05T11:53:03.895Z,4.23
2019-05-05T11:55:12.050Z,3.50
2019-05-05T11:57:13.920Z,3.93
2019-05-05T11:59:17.537Z,3.60
2019-05-05T12:01:21.645Z,3.30
2019-05-05T12:03:25.436Z,3.63
2019-05-05T12:05:29.116Z,3.33
2019-05-05T12:07:34.214Z,3.33
2019-05-05T12:09:40.159Z,3.17
2019-05-05T12:11:43.928Z,3.40
2019-05-05T12:13:47.777Z,4.03
2019-05-05T12:15:53.844Z,4.27
2019-05-05T12:17:57.707Z,3.33
2019-05-05T12:20:01.931Z,2.73
2019-05-05T12:22:05.718Z,3.73
2019-05-05T12:24:11.059Z,3.70
2019-05-05T12:26:34.978Z,4.47
2019-05-05T12:28:44.028Z,3.13
2019-05-05T12:30:47.780Z,3.10
2019-05-05T12:32:51.682Z,3.30
2019-05-05T12:34:55.357Z,3.13
2019-05-05T12:36:58.970Z,3.30
2019-05-05T12:39:04.394Z,3.77
2019-05-05T12:41:08.108Z,4.00
2019-05-05T12:43:14.090Z,4.00
2019-05-05T12:45:19.082Z,4.50
2019-05-05T12:47:30.160Z,3.73
2019-05-05T12:49:33.887Z,4.07
2019-05-05T12:51:37.754Z,4.87
2019-05-05T12:53:41.658Z,3.70
2019-05-05T12:55:45.275Z,3.87
2019-05-05T12:57:49.069Z,3.67
2019-05-05T12:59:53.641Z,4.50
2019-05-05T13:01:57.694Z,4.00
2019-05-05T13:04:03.448Z,3.53
2019-05-05T13:06:06.811Z,4.50
2019-05-05T13:08:10.945Z,4.50
2019-05-05T13:10:17.813Z,4.50
2019-05-05T13:12:23.984Z,3.70
2019-05-05T13:14:27.942Z,4.40
2019-05-05T13:16:31.588Z,4.10
2019-05-05T13:18:35.471Z,5.17
2019-05-05T13:20:46.716Z,4.00
2019-05-05T13:22:57.993Z,4.40
2019-05-05T13:25:07.709Z,4.30
2019-05-05T13:27:28.280Z,4.37
2019-05-05T13:29:33.729Z,3.90
2019-05-05T13:31:37.307Z,4.40
2019-05-05T13:33:40.962Z,4.33
2019-05-05T13:35:44.789Z,4.87
2019-05-05T13:37:48.456Z,4.47
2019-05-05T13:39:53.974Z,4.33
2019-05-05T13:41:58.516Z,4.40
2019-05-05T13:44:04.485Z,3.93
2019-05-05T13:46:18.981Z,5.10
2019-05-05T13:48:24.485Z,4.20
2019-05-05T13:50:30.172Z,4.93
2019-05-05T13:52:33.997Z,5.00
2019-05-05T13:54:37.897Z,4.27
2019-05-05T13:56:41.761Z,4.10
2019-05-05T13:58:45.770Z,4.13
2019-05-05T14:00:49.510Z,5.70
2019-05-05T14:02:54.469Z,4.20
2019-05-05T14:04:58.410Z,4.60
2019-05-05T14:07:04.011Z,4.33
2019-05-05T14:09:07.970Z,4.40
2019-05-05T14:11:13.997Z,4.80
2019-05-05T14:13:16.958Z,4.00
2019-05-05T14:15:20.935Z,3.70
2019-05-05T14:17:24.662Z,4.50
2019-05-05T14:19:28.356Z,5.00
2019-05-05T14:21:33.820Z,4.40
2019-05-05T14:23:39.075Z,5.50
2019-05-05T14:25:44.051Z,11.00
2019-05-05T14:27:47.952Z,5.40
2019-05-05T14:29:58.817Z,7.20
2019-05-05T14:32:02.466Z,4.80
2019-05-05T14:34:10.980Z,5.30
2019-05-05T14:36:34.703Z,4.10
2019-05-05T14:38:44.365Z,4.90
2019-05-05T14:40:48.289Z,5.27
2019-05-05T14:42:53.899Z,5.20
2019-05-05T14:44:57.342Z,4.40
2019-05-05T14:47:01.306Z,4.93
2019-05-05T14:49:05.791Z,4.43
2019-05-05T14:51:09.857Z,4.80
2019-05-05T14:53:14.530Z,3.90
2019-05-05T14:55:18.537Z,4.50
2019-05-05T14:57:24.525Z,4.00
2019-05-05T14:59:29.884Z,3.97
2019-05-05T15:01:34.440Z,4.10
2019-05-05T15:03:38.410Z,4.20
2019-05-05T15:05:49.736Z,4.23
2019-05-05T15:08:10.080Z,4.67
2019-05-05T15:10:27.447Z,4.40
2019-05-05T15:12:34.198Z,4.20
2019-05-05T15:14:38.118Z,3.90
2019-05-05T15:16:43.668Z,3.90
2019-05-05T15:18:47.115Z,3.77
2019-05-05T15:20:51.828Z,3.57
2019-05-05T15:22:55.754Z,4.37
2019-05-05T15:24:59.523Z,4.00
2019-05-05T15:27:03.793Z,4.20
2019-05-05T15:29:18.027Z,4.37
2019-05-05T15:31:23.674Z,3.80
2019-05-05T15:33:27.343Z,4.07
2019-05-05T15:35:33.851Z,4.07
2019-05-05T15:37:37.476Z,3.70
2019-05-05T15:39:45.871Z,4.60
2019-05-05T15:41:50.156Z,3.73
2019-05-05T15:43:56.052Z,4.03
2019-05-05T15:45:59.294Z,3.43
2019-05-05T15:48:04.626Z,3.73
2019-05-05T15:50:08.719Z,4.27
2019-05-05T15:52:13.753Z,4.47
2019-05-05T15:54:19.329Z,3.90
2019-05-05T15:56:24.472Z,4.80
2019-05-05T15:58:28.403Z,4.80
2019-05-05T16:00:33.790Z,4.57
2019-05-05T16:02:37.858Z,4.30
2019-05-05T16:04:41.643Z,3.90
2019-05-05T16:06:46.127Z,5.00
2019-05-05T16:08:49.863Z,4.10
2019-05-05T16:10:54.624Z,4.40
2019-05-05T16:12:58.870Z,5.60
2019-05-05T16:15:10.223Z,4.70
2019-05-05T16:17:19.862Z,4.90
2019-05-05T16:19:27.917Z,4.00
2019-05-05T16:21:34.496Z,4.20
2019-05-05T16:23:43.635Z,4.53
2019-05-05T16:25:47.521Z,3.73
2019-05-05T16:27:51.269Z,3.70
2019-05-05T16:29:56.418Z,4.40
2019-05-05T16:32:00.202Z,3.63
2019-05-05T16:34:06.593Z,3.80
2019-05-05T16:36:10.373Z,3.40
2019-05-05T16:38:14.918Z,3.03
2019-05-05T16:40:18.836Z,3.47
2019-05-05T16:42:24.285Z,3.53
2019-05-05T16:44:29.040Z,3.30
2019-05-05T16:46:34.129Z,4.23
2019-05-05T16:48:38.115Z,4.10
2019-05-05T16:50:44.108Z,3.60
2019-05-05T16:52:54.487Z,3.63
2019-05-05T16:55:09.378Z,3.60
2019-05-05T16:57:14.436Z,4.57
2019-05-05T16:59:20.588Z,5.73
2019-05-05T17:01:24.470Z,4.10
2019-05-05T17:03:28.290Z,4.53
2019-05-05T17:05:32.016Z,3.80
2019-05-05T17:07:35.672Z,3.63
2019-05-05T17:09:39.358Z,3.63
2019-05-05T17:11:44.810Z,4.13
2019-05-05T17:13:50.164Z,3.80
2019-05-05T17:16:13.529Z,4.20
2019-05-05T17:18:37.458Z,3.77
2019-05-05T17:20:46.689Z,4.07
2019-05-05T17:22:58.388Z,4.63
2019-05-05T17:25:02.662Z,4.30
2019-05-05T17:27:06.331Z,4.60
2019-05-05T17:29:10.099Z,4.47
2019-05-05T17:31:13.839Z,3.83
2019-05-05T17:33:17.634Z,4.67
2019-05-05T17:35:21.458Z,4.47
2019-05-05T17:37:25.351Z,4.40
2019-05-05T17:39:30.819Z,4.77
2019-05-05T17:41:45.639Z,4.10
2019-05-05T17:43:57.144Z,4.73
2019-05-05T17:46:13.385Z,3.97
2019-05-05T17:48:18.896Z,4.20
2019-05-05T17:50:40.677Z,5.50
2019-05-05T17:53:03.099Z,4.53
2019-05-05T17:55:27.931Z,5.10
2019-05-05T17:57:31.991Z,4.30
2019-05-05T17:59:35.896Z,4.90
2019-05-05T18:01:39.524Z,5.30
2019-05-05T18:03:43.714Z,4.07
2019-05-05T18:06:05.281Z,5.10
2019-05-05T18:08:06.800Z,5.77
2019-05-05T18:10:13.524Z,5.87
2019-05-05T18:12:23.624Z,5.77
2019-05-05T18:14:29.795Z,5.83
2019-05-05T18:16:34.042Z,6.07
2019-05-05T18:18:38.289Z,6.30
2019-05-05T18:20:44.755Z,6.10
2019-05-05T18:22:49.724Z,5.97
2019-05-05T18:24:53.977Z,5.63
2019-05-05T18:26:58.919Z,6.53
2019-05-05T18:29:04.516Z,6.60
2019-05-05T18:31:08.532Z,5.60
2019-05-05T18:33:13.686Z,5.90
2019-05-05T18:35:18.309Z,6.40
2019-05-05T18:37:24.042Z,6.20
2019-05-05T18:39:27.755Z,6.50
2019-05-05T18:41:36.031Z,6.47
2019-05-05T18:43:47.372Z,5.90
2019-05-05T18:45:54.900Z,6.40
2019-05-05T18:47:59.917Z,6.43
2019-05-05T18:50:05.252Z,5.60
2019-05-05T18:52:09.087Z,6.50
2019-05-05T18:54:12.815Z,5.70
2019-05-05T18:56:16.536Z,5.43
2019-05-05T18:58:27.397Z,5.93
2019-05-05T19:00:43.938Z,5.20
2019-05-05T19:02:55.309Z,5.90
2019-05-05T19:05:16.735Z,5.50
2019-05-05T19:07:23.763Z,14.87
2019-05-05T19:09:28.105Z,10.20
2019-05-05T19:11:34.135Z,8.07
2019-05-05T19:13:39.181Z,7.00
2019-05-05T19:15:43.424Z,7.40
2019-05-05T19:17:47.258Z,6.90
2019-05-05T19:19:54.677Z,7.63
2019-05-05T19:21:59.444Z,8.90
2019-05-05T19:24:03.843Z,9.40
2019-05-05T19:26:07.993Z,6.43
2019-05-05T19:28:11.807Z,7.50
2019-05-05T19:30:17.418Z,9.13
2019-05-05T19:32:21.301Z,8.73
2019-05-05T19:34:25.222Z,9.00
2019-05-05T19:36:28.919Z,7.47
2019-05-05T19:38:34.391Z,6.67
2019-05-05T19:40:37.860Z,6.40
2019-05-05T19:42:41.630Z,7.00
2019-05-05T19:44:46.757Z,6.37
2019-05-05T19:47:01.468Z,5.33
2019-05-05T19:49:18.480Z,6.13
2019-05-05T19:51:23.956Z,5.70
2019-05-05T19:53:27.603Z,6.20
2019-05-05T19:55:31.302Z,5.47
2019-05-05T19:57:36.088Z,6.70
2019-05-05T19:59:40.020Z,6.60
2019-05-05T20:01:44.974Z,7.63
2019-05-05T20:03:48.929Z,7.30
2019-05-05T20:05:54.080Z,6.77
2019-05-05T20:07:58.143Z,6.87
2019-05-05T20:10:03.881Z,7.17
2019-05-05T20:12:07.256Z,6.50
2019-05-05T20:14:11.054Z,6.47
2019-05-05T20:16:25.186Z,6.13
2019-05-05T20:18:28.792Z,6.03
2019-05-05T20:20:33.651Z,7.97
2019-05-05T20:22:37.586Z,7.37
2019-05-05T20:24:41.238Z,7.47
2019-05-05T20:26:45.004Z,7.23
2019-05-05T20:28:48.672Z,7.57
2019-05-05T20:30:54.050Z,7.63
2019-05-05T20:33:05.104Z,7.00
2019-05-05T20:35:26.789Z,7.63
2019-05-05T20:37:37.838Z,7.33
2019-05-05T20:39:43.622Z,6.90
2019-05-05T20:41:47.037Z,7.20
2019-05-05T20:43:50.747Z,7.00
2019-05-05T20:45:54.640Z,7.53
2019-05-05T20:47:58.247Z,7.37
2019-05-05T20:50:01.820Z,6.60
2019-05-05T20:52:05.687Z,7.10
2019-05-05T20:54:09.277Z,6.43
2019-05-05T20:56:14.773Z,7.00
2019-05-05T20:58:18.253Z,7.60
2019-05-05T21:00:23.881Z,6.73
2019-05-05T21:02:28.433Z,7.60
2019-05-05T21:04:34.279Z,8.60
2019-05-05T21:06:37.585Z,7.40
2019-05-05T21:08:43.798Z,7.20
2019-05-05T21:10:46.918Z,6.70
2019-05-05T21:12:50.539Z,7.03
2019-05-05T21:14:54.457Z,6.83
2019-05-05T21:16:58.201Z,6.60
2019-05-05T21:19:01.930Z,7.07
2019-05-05T21:21:07.436Z,6.90
2019-05-05T21:23:18.700Z,6.70
2019-05-05T21:25:24.054Z,7.50
2019-05-05T21:27:27.680Z,7.33
2019-05-05T21:29:41.391Z,7.37
2019-05-05T21:31:38.528Z,7.73
2019-05-05T21:33:42.233Z,8.40
2019-05-05T21:35:45.906Z,8.30
2019-05-05T21:37:49.829Z,7.50
2019-05-05T21:39:55.144Z,7.77
2019-05-05T21:41:58.711Z,7.83
2019-05-05T21:44:03.794Z,7.40
2019-05-05T21:46:09.273Z,8.23
2019-05-05T21:48:13.663Z,8.20
2019-05-05T21:50:19.203Z,7.73
2019-05-05T21:52:39.741Z,6.60
2019-05-05T21:54:53.708Z,7.03
2019-05-05T21:57:00.555Z,6.93
2019-05-05T21:59:05.709Z,7.03
2019-05-05T22:01:15.006Z,6.83
2019-05-05T22:03:31.909Z,7.87
2019-05-05T22:05:35.624Z,7.03
2019-05-05T22:07:39.439Z,6.57
2019-05-05T22:09:45.217Z,7.67
2019-05-05T22:11:48.921Z,7.20
2019-05-05T22:13:53.981Z,7.23
2019-05-05T22:15:57.974Z,6.30
2019-05-05T22:18:03.577Z,7.10
2019-05-05T22:20:08.731Z,6.77
2019-05-05T22:22:14.638Z,6.93
2019-05-05T22:24:19.936Z,7.83
2019-05-05T22:26:23.982Z,7.27
2019-05-05T22:28:27.636Z,7.67
2019-05-05T22:30:31.338Z,6.40
2019-05-05T22:32:35.090Z,7.33
2019-05-05T22:34:38.772Z,6.70
2019-05-05T22:36:44.627Z,8.67
2019-05-05T22:38:47.888Z,7.90
2019-05-05T22:40:55.995Z,7.60
2019-05-05T22:42:57.013Z,8.20
2019-05-05T22:45:00.636Z,7.73
2019-05-05T22:47:04.780Z,7.43
2019-05-05T22:49:09.021Z,8.60
2019-05-05T22:51:14.462Z,6.50
2019-05-05T22:53:18.208Z,6.97
2019-05-05T22:55:24.744Z,6.03
2019-05-05T22:57:28.487Z,7.33
2019-05-05T22:59:32.322Z,8.20
2019-05-05T23:01:36.743Z,7.40
2019-05-05T23:03:46.458Z,7.33
2019-05-05T23:06:00.873Z,7.00
2019-05-05T23:08:05.177Z,7.77
2019-05-05T23:10:09.096Z,6.77
2019-05-05T23:12:14.103Z,6.70
2019-05-05T23:14:29.896Z,7.00
2019-05-05T23:16:37.935Z,6.40
2019-05-05T23:18:41.580Z,6.20
2019-05-05T23:20:49.643Z,6.53
2019-05-05T23:23:08.076Z,6.97
2019-05-05T23:25:19.272Z,6.80
2019-05-05T23:27:40.843Z,6.63
2019-05-05T23:29:44.637Z,6.60
2019-05-05T23:31:48.396Z,6.90
2019-05-05T23:33:54.826Z,7.70
2019-05-05T23:35:58.712Z,6.87
2019-05-05T23:38:03.526Z,7.70
2019-05-05T23:40:07.333Z,6.13
2019-05-05T23:42:10.934Z,7.43
2019-05-05T23:44:14.562Z,8.13
2019-05-05T23:46:18.329Z,7.30
2019-05-05T23:48:24.004Z,7.23
2019-05-05T23:50:27.300Z,6.70
2019-05-05T23:52:31.122Z,7.63
2019-05-05T23:54:34.768Z,6.73
2019-05-05T23:56:38.444Z,6.33
2019-05-05T23:58:44.157Z,7.07
